createdAt,value
2019-05-18T00:00:52.694Z,1005.42
2019-05-18T00:01:52.688Z,1005.40
2019-05-18T00:02:52.681Z,1005.39
2019-05-18T00:03:52.677Z,1005.38
2019-05-18T00:04:52.678Z,1005.36
2019-05-18T00:05:52.671Z,1005.35
2019-05-18T00:06:52.672Z,1005.35
2019-05-18T00:07:52.690Z,1005.35
2019-05-18T00:08:52.660Z,1005.34
2019-05-18T00:09:52.653Z,1005.34
2019-05-18T00:10:52.650Z,1005.33
2019-05-18T00:11:52.647Z,1005.33
2019-05-18T00:12:52.641Z,1005.33
2019-05-18T00:13:52.636Z,1005.31
2019-05-18T00:14:52.632Z,1005.34
2019-05-18T00:15:52.632Z,1005.35
2019-05-18T00:16:52.629Z,1005.30
2019-05-18T00:17:52.632Z,1005.34
2019-05-18T00:18:52.616Z,1005.30
2019-05-18T00:19:52.612Z,1005.30
2019-05-18T00:20:52.610Z,1005.26
2019-05-18T00:21:52.605Z,1005.31
2019-05-18T00:22:52.607Z,1005.34
2019-05-18T00:23:52.596Z,1005.35
2019-05-18T00:24:52.594Z,1005.37
2019-05-18T00:25:52.588Z,1005.34
2019-05-18T00:26:52.598Z,1005.34
2019-05-18T00:27:52.580Z,1005.36
2019-05-18T00:28:52.576Z,1005.36
2019-05-18T00:29:52.569Z,1005.36
2019-05-18T00:30:52.567Z,1005.36
2019-05-18T00:31:52.563Z,1005.33
2019-05-18T00:32:52.562Z,1005.35
2019-05-18T00:33:52.554Z,1005.38
2019-05-18T00:34:52.552Z,1005.35
2019-05-18T00:35:52.547Z,1005.34
2019-05-18T00:36:52.542Z,1005.32
2019-05-18T00:37:52.537Z,1005.35
2019-05-18T00:38:52.541Z,1005.34
2019-05-18T00:39:52.531Z,1005.34
2019-05-18T00:40:52.526Z,1005.35
2019-05-18T00:41:52.520Z,1005.37
2019-05-18T00:42:52.517Z,1005.41
2019-05-18T00:43:52.514Z,1005.34
2019-05-18T00:44:52.510Z,1005.36
2019-05-18T00:45:52.507Z,1005.31
2019-05-18T00:46:52.500Z,1005.34
2019-05-18T00:47:52.495Z,1005.33
2019-05-18T00:48:52.493Z,1005.29
2019-05-18T00:49:52.487Z,1005.37
2019-05-18T00:50:52.482Z,1005.31
2019-05-18T00:51:52.478Z,1005.33
2019-05-18T00:52:52.478Z,1005.34
2019-05-18T00:53:52.470Z,1005.32
2019-05-18T00:54:52.466Z,1005.34
2019-05-18T00:55:52.466Z,1005.33
2019-05-18T00:56:52.460Z,1005.31
2019-05-18T00:57:52.451Z,1005.32
2019-05-18T00:58:52.448Z,1005.28
2019-05-18T00:59:52.445Z,1005.32
2019-05-18T01:00:52.442Z,1005.29
2019-05-18T01:01:52.440Z,1005.33
2019-05-18T01:02:52.430Z,1005.30
2019-05-18T01:03:52.428Z,1005.31
2019-05-18T01:04:52.425Z,1005.33
2019-05-18T01:05:52.418Z,1005.32
2019-05-18T01:06:52.412Z,1005.31
2019-05-18T01:07:52.409Z,1005.32
2019-05-18T01:08:52.406Z,1005.35
2019-05-18T01:09:52.402Z,1005.35
2019-05-18T01:10:52.399Z,1005.30
2019-05-18T01:11:52.393Z,1005.31
2019-05-18T01:12:52.388Z,1005.27
2019-05-18T01:13:52.381Z,1005.29
2019-05-18T01:14:52.378Z,1005.29
2019-05-18T01:15:52.375Z,1005.29
2019-05-18T01:16:52.372Z,1005.25
2019-05-18T01:17:57.297Z,1005.29
2019-05-18T01:18:52.361Z,1005.30
2019-05-18T01:19:52.355Z,1005.33
2019-05-18T01:20:52.356Z,1005.34
2019-05-18T01:21:52.352Z,1005.33
2019-05-18T01:22:52.344Z,1005.35
2019-05-18T01:23:52.338Z,1005.35
2019-05-18T01:24:52.336Z,1005.35
2019-05-18T01:25:52.329Z,1005.35
2019-05-18T01:26:52.324Z,1005.32
2019-05-18T01:27:52.320Z,1005.28
2019-05-18T01:28:52.316Z,1005.28
2019-05-18T01:29:52.314Z,1005.29
2019-05-18T01:30:52.309Z,1005.31
2019-05-18T01:31:52.305Z,1005.31
2019-05-18T01:32:52.300Z,1005.30
2019-05-18T01:33:52.294Z,1005.29
2019-05-18T01:34:52.291Z,1005.31
2019-05-18T01:35:52.284Z,1005.25
2019-05-18T01:36:52.281Z,1005.24
2019-05-18T01:37:52.278Z,1005.25
2019-05-18T01:38:52.270Z,1005.22
2019-05-18T01:39:52.267Z,1005.21
2019-05-18T01:40:52.262Z,1005.23
2019-05-18T01:41:52.257Z,1005.23
2019-05-18T01:42:52.252Z,1005.24
2019-05-18T01:43:52.248Z,1005.23
2019-05-18T01:44:52.246Z,1005.25
2019-05-18T01:45:52.240Z,1005.26
2019-05-18T01:46:52.235Z,1005.29
2019-05-18T01:47:52.229Z,1005.29
2019-05-18T01:48:52.228Z,1005.27
2019-05-18T01:49:52.233Z,1005.31
2019-05-18T01:50:52.216Z,1005.31
2019-05-18T01:51:52.213Z,1005.31
2019-05-18T01:52:52.209Z,1005.30
2019-05-18T01:53:52.202Z,1005.34
2019-05-18T01:54:52.197Z,1005.29
2019-05-18T01:55:52.200Z,1005.29
2019-05-18T01:56:52.194Z,1005.29
2019-05-18T01:57:52.184Z,1005.29
2019-05-18T01:58:52.180Z,1005.25
2019-05-18T01:59:52.175Z,1005.22
2019-05-18T02:00:52.187Z,1005.23
2019-05-18T02:01:52.164Z,1005.24
2019-05-18T02:02:52.159Z,1005.21
2019-05-18T02:03:52.157Z,1005.26
2019-05-18T02:04:52.202Z,1005.27
2019-05-18T02:05:52.148Z,1005.21
2019-05-18T02:06:52.160Z,1005.23
2019-05-18T02:07:52.138Z,1005.24
2019-05-18T02:08:52.135Z,1005.28
2019-05-18T02:09:52.126Z,1005.27
2019-05-18T02:10:52.123Z,1005.27
2019-05-18T02:11:52.121Z,1005.32
2019-05-18T02:12:52.111Z,1005.33
2019-05-18T02:13:52.107Z,1005.27
2019-05-18T02:14:52.104Z,1005.27
2019-05-18T02:15:52.100Z,1005.28
2019-05-18T02:16:52.094Z,1005.29
2019-05-18T02:17:52.095Z,1005.32
2019-05-18T02:18:52.086Z,1005.34
2019-05-18T02:19:52.081Z,1005.35
2019-05-18T02:20:52.076Z,1005.39
2019-05-18T02:21:52.071Z,1005.38
2019-05-18T02:22:52.065Z,1005.35
2019-05-18T02:23:52.063Z,1005.34
2019-05-18T02:24:52.055Z,1005.35
2019-05-18T02:25:52.051Z,1005.37
2019-05-18T02:26:52.047Z,1005.35
2019-05-18T02:27:52.040Z,1005.36
2019-05-18T02:28:52.044Z,1005.38
2019-05-18T02:29:52.030Z,1005.39
2019-05-18T02:30:52.025Z,1005.40
2019-05-18T02:31:52.021Z,1005.38
2019-05-18T02:32:52.019Z,1005.32
2019-05-18T02:33:52.013Z,1005.30
2019-05-18T02:34:52.015Z,1005.35
2019-05-18T02:35:52.000Z,1005.39
2019-05-18T02:36:51.997Z,1005.35
2019-05-18T02:37:51.993Z,1005.35
2019-05-18T02:38:51.987Z,1005.32
2019-05-18T02:39:51.981Z,1005.34
2019-05-18T02:40:51.980Z,1005.35
2019-05-18T02:41:51.971Z,1005.31
2019-05-18T02:42:51.971Z,1005.31
2019-05-18T02:43:51.963Z,1005.32
2019-05-18T02:44:51.958Z,1005.28
2019-05-18T02:45:51.951Z,1005.28
2019-05-18T02:46:51.959Z,1005.27
2019-05-18T02:47:51.942Z,1005.24
2019-05-18T02:48:51.938Z,1005.22
2019-05-18T02:49:51.941Z,1005.23
2019-05-18T02:50:51.929Z,1005.23
2019-05-18T02:51:51.926Z,1005.23
2019-05-18T02:52:51.917Z,1005.20
2019-05-18T02:53:51.913Z,1005.21
2019-05-18T02:54:51.909Z,1005.20
2019-05-18T02:55:51.903Z,1005.19
2019-05-18T02:56:51.898Z,1005.17
2019-05-18T02:57:51.893Z,1005.16
2019-05-18T02:58:51.889Z,1005.13
2019-05-18T02:59:51.882Z,1005.14
2019-05-18T03:00:51.882Z,1005.12
2019-05-18T03:01:51.871Z,1005.12
2019-05-18T03:02:51.873Z,1005.11
2019-05-18T03:03:51.866Z,1005.09
2019-05-18T03:04:51.942Z,1005.09
2019-05-18T03:05:51.855Z,1005.11
2019-05-18T03:06:51.850Z,1005.10
2019-05-18T03:07:51.847Z,1005.08
2019-05-18T03:08:51.849Z,1005.12
2019-05-18T03:09:51.842Z,1005.09
2019-05-18T03:10:51.833Z,1005.10
2019-05-18T03:11:51.825Z,1005.12
2019-05-18T03:12:51.829Z,1005.11
2019-05-18T03:13:51.815Z,1005.12
2019-05-18T03:14:51.810Z,1005.09
2019-05-18T03:15:51.805Z,1005.15
2019-05-18T03:16:51.809Z,1005.13
2019-05-18T03:17:51.799Z,1005.13
2019-05-18T03:19:06.767Z,1005.14
2019-05-18T03:19:51.788Z,1005.16
2019-05-18T03:20:51.782Z,1005.20
2019-05-18T03:21:51.785Z,1005.18
2019-05-18T03:22:51.776Z,1005.22
2019-05-18T03:23:51.784Z,1005.23
2019-05-18T03:24:51.776Z,1005.25
2019-05-18T03:25:51.758Z,1005.24
2019-05-18T03:26:51.760Z,1005.24
2019-05-18T03:27:51.745Z,1005.25
2019-05-18T03:28:51.747Z,1005.26
2019-05-18T03:29:51.772Z,1005.26
2019-05-18T03:30:51.740Z,1005.23
2019-05-18T03:31:51.737Z,1005.31
2019-05-18T03:32:51.726Z,1005.30
2019-05-18T03:33:51.720Z,1005.28
2019-05-18T03:34:51.710Z,1005.28
2019-05-18T03:35:51.704Z,1005.26
2019-05-18T03:36:51.700Z,1005.27
2019-05-18T03:37:51.708Z,1005.31
2019-05-18T03:38:51.688Z,1005.28
2019-05-18T03:39:51.707Z,1005.31
2019-05-18T03:40:51.698Z,1005.26
2019-05-18T03:41:51.684Z,1005.24
2019-05-18T03:42:51.674Z,1005.23
2019-05-18T03:43:51.692Z,1005.23
2019-05-18T03:44:51.674Z,1005.21
2019-05-18T03:45:51.687Z,1005.22
2019-05-18T03:46:51.712Z,1005.21
2019-05-18T03:47:51.646Z,1005.23
2019-05-18T03:48:51.637Z,1005.25
2019-05-18T03:49:51.642Z,1005.28
2019-05-18T03:50:51.636Z,1005.26
2019-05-18T03:51:51.665Z,1005.28
2019-05-18T03:52:51.622Z,1005.24
2019-05-18T03:53:51.612Z,1005.24
2019-05-18T03:54:51.617Z,1005.22
2019-05-18T03:55:51.605Z,1005.25
2019-05-18T03:56:51.604Z,1005.21
2019-05-18T03:57:51.635Z,1005.26
2019-05-18T03:58:51.586Z,1005.28
2019-05-18T03:59:51.584Z,1005.29
2019-05-18T04:00:51.591Z,1005.25
2019-05-18T04:01:51.575Z,1005.23
2019-05-18T04:02:51.583Z,1005.22
2019-05-18T04:03:51.563Z,1005.23
2019-05-18T04:04:51.558Z,1005.18
2019-05-18T04:05:51.595Z,1005.14
2019-05-18T04:06:51.566Z,1005.12
2019-05-18T04:07:51.559Z,1005.11
2019-05-18T04:08:51.558Z,1005.08
2019-05-18T04:09:51.539Z,1005.09
2019-05-18T04:10:51.542Z,1005.12
2019-05-18T04:11:51.553Z,1005.14
2019-05-18T04:12:51.535Z,1005.17
2019-05-18T04:13:51.530Z,1005.17
2019-05-18T04:14:51.518Z,1005.22
2019-05-18T04:15:51.512Z,1005.25
2019-05-18T04:16:51.512Z,1005.25
2019-05-18T04:17:51.498Z,1005.22
2019-05-18T04:18:51.496Z,1005.21
2019-05-18T04:19:51.524Z,1005.22
2019-05-18T04:20:51.538Z,1005.22
2019-05-18T04:21:51.540Z,1005.23
2019-05-18T04:22:51.477Z,1005.23
2019-05-18T04:23:51.473Z,1005.19
2019-05-18T04:24:51.486Z,1005.22
2019-05-18T04:25:51.465Z,1005.20
2019-05-18T04:26:51.497Z,1005.22
2019-05-18T04:27:51.479Z,1005.21
2019-05-18T04:28:51.480Z,1005.21
2019-05-18T04:29:51.448Z,1005.17
2019-05-18T04:30:51.450Z,1005.21
2019-05-18T04:31:51.470Z,1005.19
2019-05-18T04:32:51.439Z,1005.19
2019-05-18T04:33:51.434Z,1005.19
2019-05-18T04:34:51.429Z,1005.22
2019-05-18T04:35:51.426Z,1005.20
2019-05-18T04:36:51.424Z,1005.18
2019-05-18T04:37:51.422Z,1005.21
2019-05-18T04:38:51.419Z,1005.24
2019-05-18T04:39:51.409Z,1005.24
2019-05-18T04:40:51.436Z,1005.22
2019-05-18T04:41:51.408Z,1005.19
2019-05-18T04:42:51.434Z,1005.23
2019-05-18T04:43:51.401Z,1005.18
2019-05-18T04:44:51.394Z,1005.22
2019-05-18T04:45:51.390Z,1005.21
2019-05-18T04:46:51.402Z,1005.20
2019-05-18T04:47:51.389Z,1005.23
2019-05-18T04:48:51.385Z,1005.26
2019-05-18T04:50:04.328Z,1005.22
2019-05-18T04:50:51.374Z,1005.21
2019-05-18T04:51:51.376Z,1005.21
2019-05-18T04:52:51.372Z,1005.23
2019-05-18T04:53:51.369Z,1005.18
2019-05-18T04:54:51.376Z,1005.14
2019-05-18T04:55:51.362Z,1005.15
2019-05-18T04:56:51.367Z,1005.14
2019-05-18T04:57:51.360Z,1005.14
2019-05-18T04:58:51.387Z,1005.16
2019-05-18T04:59:51.354Z,1005.19
2019-05-18T05:00:51.353Z,1005.20
2019-05-18T05:01:51.358Z,1005.16
2019-05-18T05:02:51.335Z,1005.23
2019-05-18T05:03:51.341Z,1005.24
2019-05-18T05:04:55.739Z,1005.23
2019-05-18T05:05:51.382Z,1005.21
2019-05-18T05:06:51.333Z,1005.15
2019-05-18T05:07:51.330Z,1005.16
2019-05-18T05:08:51.329Z,1005.20
2019-05-18T05:09:51.327Z,1005.23
2019-05-18T05:10:51.321Z,1005.19
2019-05-18T05:11:51.320Z,1005.18
2019-05-18T05:12:51.319Z,1005.16
2019-05-18T05:13:51.314Z,1005.17
2019-05-18T05:14:51.312Z,1005.24
2019-05-18T05:15:51.315Z,1005.22
2019-05-18T05:16:51.354Z,1005.24
2019-05-18T05:17:51.307Z,1005.25
2019-05-18T05:18:51.307Z,1005.22
2019-05-18T05:19:51.303Z,1005.25
2019-05-18T05:20:51.318Z,1005.22
2019-05-18T05:21:51.301Z,1005.22
2019-05-18T05:22:51.297Z,1005.22
2019-05-18T05:23:51.298Z,1005.24
2019-05-18T05:24:51.339Z,1005.19
2019-05-18T05:25:51.298Z,1005.20
2019-05-18T05:26:51.292Z,1005.22
2019-05-18T05:27:51.325Z,1005.21
2019-05-18T05:28:51.301Z,1005.12
2019-05-18T05:29:51.292Z,1005.19
2019-05-18T05:30:51.288Z,1005.20
2019-05-18T05:31:51.292Z,1005.21
2019-05-18T05:32:51.319Z,1005.16
2019-05-18T05:33:51.310Z,1005.16
2019-05-18T05:34:51.283Z,1005.15
2019-05-18T05:35:51.290Z,1005.15
2019-05-18T05:36:51.285Z,1005.17
2019-05-18T05:37:51.283Z,1005.20
2019-05-18T05:38:51.282Z,1005.17
2019-05-18T05:39:51.282Z,1005.18
2019-05-18T05:40:51.317Z,1005.19
2019-05-18T05:41:51.321Z,1005.19
2019-05-18T05:42:51.279Z,1005.17
2019-05-18T05:43:51.284Z,1005.17
2019-05-18T05:44:51.282Z,1005.22
2019-05-18T05:45:51.283Z,1005.24
2019-05-18T05:46:51.286Z,1005.23
2019-05-18T05:47:51.280Z,1005.20
2019-05-18T05:48:51.306Z,1005.21
2019-05-18T05:49:51.333Z,1005.21
2019-05-18T05:50:51.278Z,1005.22
2019-05-18T05:51:51.278Z,1005.27
2019-05-18T05:52:51.280Z,1005.24
2019-05-18T05:53:51.276Z,1005.24
2019-05-18T05:54:51.307Z,1005.31
2019-05-18T05:55:51.281Z,1005.26
2019-05-18T05:56:51.280Z,1005.25
2019-05-18T05:57:51.291Z,1005.30
2019-05-18T05:58:51.285Z,1005.30
2019-05-18T05:59:51.290Z,1005.31
2019-05-18T06:00:51.300Z,1005.27
2019-05-18T06:01:51.283Z,1005.31
2019-05-18T06:02:51.282Z,1005.33
2019-05-18T06:03:51.289Z,1005.26
2019-05-18T06:04:51.294Z,1005.29
2019-05-18T06:05:51.301Z,1005.29
2019-05-18T06:06:51.287Z,1005.25
2019-05-18T06:07:51.287Z,1005.26
2019-05-18T06:08:51.336Z,1005.28
2019-05-18T06:09:51.321Z,1005.25
2019-05-18T06:10:51.290Z,1005.28
2019-05-18T06:11:51.297Z,1005.28
2019-05-18T06:12:51.294Z,1005.30
2019-05-18T06:13:51.301Z,1005.29
2019-05-18T06:14:51.299Z,1005.32
2019-05-18T06:15:51.303Z,1005.33
2019-05-18T06:16:51.323Z,1005.34
2019-05-18T06:17:51.302Z,1005.38
2019-05-18T06:18:51.348Z,1005.34
2019-05-18T06:19:51.325Z,1005.37
2019-05-18T06:20:52.138Z,1005.36
2019-05-18T06:21:51.309Z,1005.39
2019-05-18T06:22:51.315Z,1005.38
2019-05-18T06:23:51.313Z,1005.40
2019-05-18T06:24:51.377Z,1005.40
2019-05-18T06:25:51.313Z,1005.39
2019-05-18T06:26:51.312Z,1005.35
2019-05-18T06:27:51.325Z,1005.37
2019-05-18T06:28:51.319Z,1005.33
2019-05-18T06:29:51.344Z,1005.34
2019-05-18T06:30:51.319Z,1005.35
2019-05-18T06:31:51.318Z,1005.29
2019-05-18T06:32:51.375Z,1005.32
2019-05-18T06:33:51.333Z,1005.29
2019-05-18T06:34:51.329Z,1005.30
2019-05-18T06:35:51.354Z,1005.32
2019-05-18T06:36:51.334Z,1005.33
2019-05-18T06:37:51.348Z,1005.32
2019-05-18T06:38:51.337Z,1005.35
2019-05-18T06:39:51.339Z,1005.33
2019-05-18T06:40:51.341Z,1005.31
2019-05-18T06:41:51.343Z,1005.31
2019-05-18T06:42:51.346Z,1005.29
2019-05-18T06:43:51.350Z,1005.30
2019-05-18T06:44:51.357Z,1005.30
2019-05-18T06:45:51.365Z,1005.32
2019-05-18T06:46:51.355Z,1005.29
2019-05-18T06:47:51.361Z,1005.30
2019-05-18T06:48:51.365Z,1005.33
2019-05-18T06:49:51.363Z,1005.36
2019-05-18T06:51:04.940Z,1005.29
2019-05-18T06:51:51.371Z,1005.27
2019-05-18T06:52:51.374Z,1005.26
2019-05-18T06:53:51.375Z,1005.28
2019-05-18T06:54:51.380Z,1005.24
2019-05-18T06:55:51.383Z,1005.27
2019-05-18T06:56:51.389Z,1005.27
2019-05-18T06:57:51.388Z,1005.27
2019-05-18T06:58:51.392Z,1005.31
2019-05-18T06:59:51.397Z,1005.27
2019-05-18T07:00:51.402Z,1005.27
2019-05-18T07:01:51.404Z,1005.22
2019-05-18T07:02:51.409Z,1005.23
2019-05-18T07:03:51.411Z,1005.22
2019-05-18T07:04:51.415Z,1005.22
2019-05-18T07:05:51.418Z,1005.20
2019-05-18T07:06:51.420Z,1005.23
2019-05-18T07:07:51.427Z,1005.21
2019-05-18T07:08:51.428Z,1005.25
2019-05-18T07:09:51.445Z,1005.23
2019-05-18T07:10:51.438Z,1005.25
2019-05-18T07:11:51.443Z,1005.23
2019-05-18T07:12:51.444Z,1005.22
2019-05-18T07:13:51.446Z,1005.21
2019-05-18T07:14:51.450Z,1005.19
2019-05-18T07:15:51.456Z,1005.20
2019-05-18T07:16:51.459Z,1005.23
2019-05-18T07:17:51.465Z,1005.21
2019-05-18T07:18:51.466Z,1005.23
2019-05-18T07:19:51.474Z,1005.21
2019-05-18T07:20:51.476Z,1005.22
2019-05-18T07:21:51.480Z,1005.22
2019-05-18T07:22:51.486Z,1005.24
2019-05-18T07:23:51.487Z,1005.24
2019-05-18T07:24:51.491Z,1005.21
2019-05-18T07:25:51.497Z,1005.18
2019-05-18T07:26:51.506Z,1005.14
2019-05-18T07:27:51.505Z,1005.20
2019-05-18T07:28:51.509Z,1005.16
2019-05-18T07:29:51.513Z,1005.13
2019-05-18T07:30:51.522Z,1005.12
2019-05-18T07:31:51.525Z,1005.12
2019-05-18T07:32:51.533Z,1005.12
2019-05-18T07:33:51.533Z,1005.16
2019-05-18T07:34:51.539Z,1005.16
2019-05-18T07:35:51.542Z,1005.17
2019-05-18T07:36:51.549Z,1005.13
2019-05-18T07:37:51.578Z,1005.11
2019-05-18T07:38:51.566Z,1005.08
2019-05-18T07:39:51.563Z,1005.11
2019-05-18T07:40:51.569Z,1005.11
2019-05-18T07:41:51.572Z,1005.07
2019-05-18T07:42:51.578Z,1005.05
2019-05-18T07:43:51.583Z,1005.08
2019-05-18T07:44:51.589Z,1005.08
2019-05-18T07:45:51.592Z,1005.04
2019-05-18T07:46:51.597Z,1005.01
2019-05-18T07:47:51.608Z,1005.07
2019-05-18T07:48:51.608Z,1005.04
2019-05-18T07:49:51.610Z,1005.07
2019-05-18T07:50:51.619Z,1005.04
2019-05-18T07:51:51.623Z,1005.06
2019-05-18T07:52:51.659Z,1005.01
2019-05-18T07:53:51.636Z,1005.02
2019-05-18T07:54:51.641Z,1005.04
2019-05-18T07:55:51.646Z,1005.08
2019-05-18T07:56:51.657Z,1005.10
2019-05-18T07:57:51.783Z,1005.01
2019-05-18T07:58:51.663Z,1005.07
2019-05-18T07:59:51.670Z,1005.08
2019-05-18T08:00:51.677Z,1005.08
2019-05-18T08:01:51.682Z,1005.08
2019-05-18T08:02:51.689Z,1005.10
2019-05-18T08:03:51.695Z,1005.10
2019-05-18T08:04:51.699Z,1005.07
2019-05-18T08:05:51.703Z,1005.04
2019-05-18T08:06:51.719Z,1005.02
2019-05-18T08:07:51.717Z,1005.04
2019-05-18T08:08:51.727Z,1004.99
2019-05-18T08:09:51.726Z,1005.06
2019-05-18T08:10:51.733Z,1005.03
2019-05-18T08:11:51.739Z,1005.01
2019-05-18T08:12:51.745Z,1005.01
2019-05-18T08:13:51.750Z,1005.03
2019-05-18T08:14:51.757Z,1005.03
2019-05-18T08:15:51.815Z,1005.04
2019-05-18T08:16:51.767Z,1005.03
2019-05-18T08:17:51.774Z,1005.06
2019-05-18T08:18:51.781Z,1005.09
2019-05-18T08:19:51.791Z,1005.09
2019-05-18T08:20:51.798Z,1005.08
2019-05-18T08:21:53.532Z,1005.08
2019-05-18T08:22:51.804Z,1005.10
2019-05-18T08:23:51.813Z,1005.10
2019-05-18T08:24:51.817Z,1005.08
2019-05-18T08:25:51.821Z,1005.07
2019-05-18T08:26:51.833Z,1005.20
2019-05-18T08:27:51.836Z,1005.11
2019-05-18T08:28:51.845Z,1005.12
2019-05-18T08:29:51.848Z,1005.07
2019-05-18T08:30:51.861Z,1005.08
2019-05-18T08:31:51.859Z,1005.12
2019-05-18T08:32:51.867Z,1004.96
2019-05-18T08:33:51.873Z,1005.01
2019-05-18T08:34:51.879Z,1004.99
2019-05-18T08:35:51.885Z,1004.99
2019-05-18T08:36:51.892Z,1004.95
2019-05-18T08:37:51.898Z,1004.96
2019-05-18T08:38:51.905Z,1004.94
2019-05-18T08:39:51.909Z,1004.93
2019-05-18T08:40:51.920Z,1004.91
2019-05-18T08:41:51.928Z,1004.98
2019-05-18T08:42:51.935Z,1004.91
2019-05-18T08:43:51.937Z,1004.85
2019-05-18T08:44:51.953Z,1004.90
2019-05-18T08:45:51.949Z,1004.86
2019-05-18T08:46:51.956Z,1004.89
2019-05-18T08:47:51.967Z,1004.76
2019-05-18T08:48:51.970Z,1004.84
2019-05-18T08:49:51.980Z,1004.81
2019-05-18T08:50:51.988Z,1004.77
2019-05-18T08:51:51.989Z,1004.76
2019-05-18T08:52:51.996Z,1004.70
2019-05-18T08:53:52.005Z,1004.69
2019-05-18T08:54:52.005Z,1004.60
2019-05-18T08:55:52.016Z,1004.55
2019-05-18T08:56:52.018Z,1004.47
2019-05-18T08:57:52.021Z,1004.52
2019-05-18T08:58:52.030Z,1004.53
2019-05-18T08:59:52.033Z,1004.55
2019-05-18T09:00:52.040Z,1004.48
2019-05-18T09:01:52.057Z,1004.46
2019-05-18T09:02:52.046Z,1004.47
2019-05-18T09:03:52.051Z,1004.47
2019-05-18T09:04:52.059Z,1004.42
2019-05-18T09:05:52.059Z,1004.41
2019-05-18T09:06:52.065Z,1004.40
2019-05-18T09:07:52.093Z,1004.40
2019-05-18T09:08:52.069Z,1004.36
2019-05-18T09:09:52.077Z,1004.42
2019-05-18T09:10:52.077Z,1004.39
2019-05-18T09:11:52.083Z,1004.40
2019-05-18T09:12:52.081Z,1004.38
2019-05-18T09:13:52.085Z,1004.41
2019-05-18T09:14:52.087Z,1004.40
2019-05-18T09:15:52.089Z,1004.38
2019-05-18T09:16:52.089Z,1004.34
2019-05-18T09:17:52.091Z,1004.37
2019-05-18T09:18:52.095Z,1004.28
2019-05-18T09:19:52.095Z,1004.31
2019-05-18T09:20:52.096Z,1004.32
2019-05-18T09:21:52.099Z,1004.30
2019-05-18T09:22:52.099Z,1004.38
2019-05-18T09:23:52.102Z,1004.30
2019-05-18T09:24:52.105Z,1004.41
2019-05-18T09:25:52.105Z,1004.33
2019-05-18T09:26:52.105Z,1004.26
2019-05-18T09:27:52.108Z,1004.30
2019-05-18T09:28:52.110Z,1004.26
2019-05-18T09:29:52.110Z,1004.18
2019-05-18T09:30:52.111Z,1004.19
2019-05-18T09:31:52.112Z,1004.20
2019-05-18T09:32:52.116Z,1004.21
2019-05-18T09:33:52.114Z,1004.16
2019-05-18T09:34:52.117Z,1004.18
2019-05-18T09:35:52.132Z,1004.18
2019-05-18T09:36:52.119Z,1004.19
2019-05-18T09:37:52.120Z,1004.15
2019-05-18T09:38:52.120Z,1004.09
2019-05-18T09:39:52.122Z,1004.11
2019-05-18T09:40:52.126Z,1003.98
2019-05-18T09:41:52.127Z,1004.13
2019-05-18T09:42:52.128Z,1004.05
2019-05-18T09:43:52.125Z,1004.03
2019-05-18T09:44:52.126Z,1003.98
2019-05-18T09:45:52.126Z,1004.04
2019-05-18T09:46:52.127Z,1004.06
2019-05-18T09:47:52.133Z,1004.00
2019-05-18T09:48:52.132Z,1004.00
2019-05-18T09:49:52.130Z,1004.02
2019-05-18T09:50:52.162Z,1003.99
2019-05-18T09:51:52.133Z,1003.95
2019-05-18T09:52:52.136Z,1003.99
2019-05-18T09:53:52.201Z,1003.94
2019-05-18T09:54:52.138Z,1003.95
2019-05-18T09:55:52.134Z,1003.94
2019-05-18T09:56:52.134Z,1003.96
2019-05-18T09:57:52.135Z,1003.92
2019-05-18T09:58:52.136Z,1003.93
2019-05-18T09:59:52.136Z,1003.97
2019-05-18T10:00:52.138Z,1003.90
2019-05-18T10:01:52.137Z,1003.94
2019-05-18T10:02:52.139Z,1003.92
2019-05-18T10:03:52.140Z,1003.92
2019-05-18T10:04:52.208Z,1003.95
2019-05-18T10:05:52.141Z,1003.96
2019-05-18T10:06:52.142Z,1003.93
2019-05-18T10:07:52.143Z,1003.93
2019-05-18T10:08:52.144Z,1003.89
2019-05-18T10:09:52.146Z,1003.90
2019-05-18T10:10:52.144Z,1003.89
2019-05-18T10:11:52.147Z,1003.89
2019-05-18T10:12:52.148Z,1003.82
2019-05-18T10:13:52.149Z,1003.86
2019-05-18T10:14:52.149Z,1003.75
2019-05-18T10:15:52.155Z,1003.74
2019-05-18T10:16:52.150Z,1003.71
2019-05-18T10:17:52.149Z,1003.85
2019-05-18T10:18:52.153Z,1003.75
2019-05-18T10:19:52.155Z,1003.77
2019-05-18T10:20:52.155Z,1003.74
2019-05-18T10:21:52.154Z,1003.69
2019-05-18T10:23:04.072Z,1003.70
2019-05-18T10:23:52.156Z,1003.66
2019-05-18T10:24:52.158Z,1003.75
2019-05-18T10:25:52.157Z,1003.71
2019-05-18T10:26:52.160Z,1003.70
2019-05-18T10:27:52.161Z,1003.65
2019-05-18T10:28:52.204Z,1003.73
2019-05-18T10:29:52.163Z,1003.73
2019-05-18T10:30:52.165Z,1003.64
2019-05-18T10:31:52.165Z,1003.65
2019-05-18T10:32:52.165Z,1003.69
2019-05-18T10:33:52.166Z,1003.65
2019-05-18T10:34:52.170Z,1003.61
2019-05-18T10:35:52.168Z,1003.62
2019-05-18T10:36:52.173Z,1003.65
2019-05-18T10:37:52.168Z,1003.65
2019-05-18T10:38:52.170Z,1003.61
2019-05-18T10:39:52.175Z,1003.53
2019-05-18T10:40:52.175Z,1003.56
2019-05-18T10:41:52.175Z,1003.56
2019-05-18T10:42:52.178Z,1003.52
2019-05-18T10:43:52.177Z,1003.49
2019-05-18T10:44:52.179Z,1003.47
2019-05-18T10:45:52.183Z,1003.44
2019-05-18T10:46:52.180Z,1003.42
2019-05-18T10:47:52.192Z,1003.45
2019-05-18T10:48:52.183Z,1003.46
2019-05-18T10:49:52.186Z,1003.49
2019-05-18T10:50:52.187Z,1003.41
2019-05-18T10:51:52.188Z,1003.44
2019-05-18T10:52:52.192Z,1003.36
2019-05-18T10:53:52.190Z,1003.33
2019-05-18T10:54:52.195Z,1003.37
2019-05-18T10:55:52.194Z,1003.34
2019-05-18T10:56:52.210Z,1003.44
2019-05-18T10:57:52.198Z,1003.30
2019-05-18T10:58:52.199Z,1003.36
2019-05-18T10:59:52.209Z,1003.35
2019-05-18T11:00:52.202Z,1003.34
2019-05-18T11:01:52.205Z,1003.27
2019-05-18T11:02:52.205Z,1003.30
2019-05-18T11:03:52.207Z,1003.18
2019-05-18T11:04:52.209Z,1003.23
2019-05-18T11:05:52.211Z,1003.21
2019-05-18T11:06:52.210Z,1003.22
2019-05-18T11:07:52.216Z,1003.25
2019-05-18T11:08:52.215Z,1003.28
2019-05-18T11:09:52.220Z,1003.22
2019-05-18T11:10:52.218Z,1003.23
2019-05-18T11:11:52.222Z,1003.22
2019-05-18T11:12:52.223Z,1003.19
2019-05-18T11:13:52.227Z,1003.13
2019-05-18T11:14:52.233Z,1003.17
2019-05-18T11:15:52.227Z,1003.17
2019-05-18T11:16:52.227Z,1003.14
2019-05-18T11:17:52.232Z,1003.15
2019-05-18T11:18:52.233Z,1003.22
2019-05-18T11:19:52.232Z,1003.23
2019-05-18T11:20:52.234Z,1003.22
2019-05-18T11:21:52.234Z,1003.24
2019-05-18T11:22:52.242Z,1003.15
2019-05-18T11:23:52.238Z,1003.09
2019-05-18T11:24:52.240Z,1003.11
2019-05-18T11:25:52.241Z,1003.17
2019-05-18T11:26:52.243Z,1003.10
2019-05-18T11:27:52.241Z,1003.14
2019-05-18T11:28:52.247Z,1003.13
2019-05-18T11:29:52.248Z,1003.16
2019-05-18T11:30:52.249Z,1003.11
2019-05-18T11:31:52.250Z,1003.10
2019-05-18T11:32:52.254Z,1003.14
2019-05-18T11:33:52.260Z,1003.20
2019-05-18T11:34:52.255Z,1003.13
2019-05-18T11:35:52.257Z,1003.08
2019-05-18T11:36:52.262Z,1003.08
2019-05-18T11:37:52.264Z,1003.09
2019-05-18T11:38:52.263Z,1003.04
2019-05-18T11:39:52.266Z,1003.18
2019-05-18T11:40:52.271Z,1003.20
2019-05-18T11:41:52.267Z,1003.23
2019-05-18T11:42:52.271Z,1003.18
2019-05-18T11:43:52.272Z,1003.16
2019-05-18T11:44:52.273Z,1003.12
2019-05-18T11:45:52.273Z,1003.15
2019-05-18T11:46:52.277Z,1003.14
2019-05-18T11:47:52.276Z,1003.13
2019-05-18T11:48:52.280Z,1003.11
2019-05-18T11:49:52.287Z,1003.06
2019-05-18T11:50:52.281Z,1003.11
2019-05-18T11:51:52.290Z,1003.01
2019-05-18T11:52:52.286Z,1003.01
2019-05-18T11:53:58.467Z,1003.00
2019-05-18T11:54:52.288Z,1002.95
2019-05-18T11:55:52.301Z,1002.93
2019-05-18T11:56:52.306Z,1002.94
2019-05-18T11:57:52.301Z,1003.07
2019-05-18T11:58:52.298Z,1003.08
2019-05-18T11:59:52.297Z,1003.05
2019-05-18T12:00:52.298Z,1003.04
2019-05-18T12:01:52.304Z,1003.06
2019-05-18T12:02:52.304Z,1003.07
2019-05-18T12:03:52.307Z,1003.01
2019-05-18T12:04:52.310Z,1003.07
2019-05-18T12:05:52.306Z,1002.98